• Join FlightAware (Why Join?)
  • Login
  • US Flag 
02:37PM EDT


 

Airport Tracker/Info


-or-


 

Live Flight TrackerFlight Track Log ✈ N6036Y ✈ 02-Mar-2014 ✈ KTLH - KEVB

Flight Track Log - Related Links

Times and Time Zones

All times are in EST time to prevent confusion due to time zone crossing. See the N6036Y flight status page for this flight to view local times or setup timezone preferences in your user account.

Time Position Orientation Groundspeed Altitude Reporting Facility
EST Latitude Longitude Course Direction KTS MPH feet Rate Location/Type
08:39PM 30.2434 -83.9442 114° Southeast  Level FlightAware Approximate
08:40PM 30.2308 -83.9108 114° Southeast  Level FlightAware Approximate
08:41PM 30.2181 -83.8773 114° Southeast  Level FlightAware Approximate
08:42PM 30.2054 -83.8438 114° Southeast  Level FlightAware Approximate
08:43PM 30.1928 -83.8104 114° Southeast  Level FlightAware Approximate
08:43PM 30.2083 -83.8972 114° Southeast 109 125 7,400  Level Jacksonville Center
08:44PM 30.1800 -83.7769 114° Southeast  Level FlightAware Approximate
08:44PM 30.1981 -83.8658 111° Southeast 109 125 7,400  Level Jacksonville Center
08:45PM 30.1674 -83.7435 114° Southeast  Level FlightAware Approximate
08:45PM 30.1858 -83.8344 114° Southeast 109 125 7,400  Level Jacksonville Center
08:46PM 30.1546 -83.7101 114° Southeast  Level FlightAware Approximate
08:46PM 30.1736 -83.8008 113° Southeast 109 125 7,400  Level Jacksonville Center
08:47PM 30.1419 -83.6766 114° Southeast  Level FlightAware Approximate
08:47PM 30.1611 -83.7719 117° Southeast 109 125 7,400  Level Jacksonville Center
08:48PM 30.1467 -83.7406 118° Southeast 109 125 7,400  Level Jacksonville Center
08:49PM 30.1367 -83.7069 109° East 109 125 7,400  Level Jacksonville Center
08:50PM 30.1242 -83.6756 115° Southeast 109 125 7,400  Level Jacksonville Center
08:51PM 30.1139 -83.6442 111° Southeast 109 125 7,400  Level Jacksonville Center
08:52PM 30.1017 -83.6106 113° Southeast 109 125 7,400  Level Jacksonville Center
08:53PM 30.0892 -83.5792 115° Southeast 109 125 7,400  Level Jacksonville Center
08:54PM 30.0769 -83.5478 114° Southeast 109 125 7,400  Level Jacksonville Center
08:55PM 30.0644 -83.5167 115° Southeast 109 125 7,400  Level Jacksonville Center
08:56PM 30.0542 -83.4828 109° East 109 125 7,400  Level Jacksonville Center
08:57PM 30.0419 -83.4517 114° Southeast 109 125 7,400  Level Jacksonville Center
08:58PM 30.0294 -83.4203 115° Southeast 109 125 7,400  Level Jacksonville Center
08:59PM 30.0172 -83.3892 114° Southeast 114 131 7,400  Level Jacksonville Center
09:00PM 30.0047 -83.3556 113° Southeast 114 131 7,500  Climbing Jacksonville Center
09:01PM 29.9922 -83.3242 115° Southeast 114 131 7,400 -60 Descending Jacksonville Center
09:02PM 29.9800 -83.2931 114° Southeast 114 131 7,400  Level Jacksonville Center
09:03PM 29.9675 -83.2594 113° Southeast 114 131 7,400  Level Jacksonville Center
09:04PM 29.9550 -83.2258 113° Southeast 114 131 7,400  Level Jacksonville Center
09:05PM 29.9406 -83.1922 116° Southeast 114 131 7,400  Level Jacksonville Center
09:06PM 29.9300 -83.1611 111° Southeast 114 131 7,500  Climbing Jacksonville Center
09:07PM 29.9175 -83.1275 113° Southeast 114 131 7,500  Level Jacksonville Center
09:08PM 29.9031 -83.0914 115° Southeast 114 131 7,500 -60 Level Jacksonville Center
09:09PM 29.8886 -83.0603 118° Southeast 118 136 7,400 -120 Descending Jacksonville Center
09:09PM 29.8781 -83.0433 126° Southeast 115 132 7,400  Level Jacksonville Center
09:10PM 29.8781 -83.0267 90° East 118 136 7,400  Level Jacksonville Center
09:10PM 29.8697 -83.0075 117° Southeast 116 133 7,400  Level Jacksonville Center
09:11PM 29.8656 -82.9931 108° East 111 128 7,400 60 Level Jacksonville Center
09:11PM 29.8553 -82.9739 122° Southeast 112 129 7,500  Climbing Jacksonville Center
09:12PM 29.8531 -82.9597 100° East 111 128 7,400  Descending Jacksonville Center
09:12PM 29.8428 -82.9428 125° Southeast 110 127 7,500 60 Climbing Jacksonville Center
09:13PM 29.8386 -82.9261 106° East 104 120 7,500  Level Jacksonville Center
09:13PM 29.8303 -82.9069 117° Southeast 112 129 7,500  Level Jacksonville Center
09:14PM 29.8281 -82.8925 100° East 114 131 7,500  Level Jacksonville Center
09:14PM 29.8156 -82.8758 131° Southeast 112 129 7,500  Level Jacksonville Center
09:15PM 29.8133 -82.8614 100° East 114 131 7,500  Level Jacksonville Center
09:15PM 29.8031 -82.8422 122° Southeast 113 130 7,500  Level Jacksonville Center
09:16PM 29.8008 -82.8281 100° East 109 125 7,500  Level Jacksonville Center
09:16PM 29.7906 -82.8089 122° Southeast 112 129 7,500  Level Jacksonville Center
09:17PM 29.7883 -82.7944 100° East 113 130 7,500  Level Jacksonville Center
09:17PM 29.7781 -82.7753 122° Southeast 113 130 7,500  Level Jacksonville Center
09:18PM 29.7758 -82.7633 102° East 113 130 7,500  Level Jacksonville Center
09:18PM 29.7653 -82.7442 122° Southeast 113 130 7,500  Level Jacksonville Center
09:19PM 29.7611 -82.7300 109° East 104 120 7,500  Level Jacksonville Center
09:19PM 29.7508 -82.7083 119° Southeast 113 130 7,500  Level Jacksonville Center
09:20PM 29.7403 -82.6750 110° East 113 130 7,500  Level Jacksonville Center
09:21PM 29.7275 -82.6461 117° Southeast 112 129 7,500  Level Jacksonville Center
09:22PM 29.7131 -82.6128 117° Southeast 112 129 7,500 -60 Level Jacksonville Center
09:23PM 29.7025 -82.5794 110° East 112 129 7,400  Descending Jacksonville Center
09:24PM 29.6897 -82.5483 115° Southeast 113 130 7,500  Climbing Jacksonville Center
09:25PM 29.6772 -82.5150 113° Southeast 113 130 7,500  Level Jacksonville Center
09:26PM 29.6667 -82.4839 111° Southeast 113 130 7,500  Level Jacksonville Center
09:27PM 29.6519 -82.4506 117° Southeast 113 130 7,500 -60 Level Jacksonville Center
09:28PM 29.6394 -82.4194 115° Southeast 113 130 7,400  Descending Jacksonville Center
09:29PM 29.6244 -82.3836 116° Southeast 114 131 7,500  Climbing Jacksonville Center
09:30PM 29.6097 -82.3481 115° Southeast 113 130 7,500  Level Jacksonville Center
09:31PM 29.5992 -82.3144 110° East 114 131 7,500  Level Jacksonville Center
09:32PM 29.5864 -82.2789 112° Southeast 114 131 7,500 -60 Level Jacksonville Center
09:33PM 29.5717 -82.2478 119° Southeast 114 131 7,400  Descending Jacksonville Center
09:34PM 29.5569 -82.2122 115° Southeast 115 132 7,500  Climbing Jacksonville Center
09:35PM 29.5442 -82.1789 114° Southeast 117 135 7,400 -60 Descending Jacksonville Center
09:36PM 29.5317 -82.1478 115° Southeast 112 129 7,400  Level Jacksonville Center
09:37PM 29.5189 -82.1144 114° Southeast 113 130 7,400  Level Jacksonville Center
09:38PM 29.5061 -82.0764 111° Southeast 113 130 7,500  Climbing Jacksonville Center
09:39PM 29.4933 -82.0433 114° Southeast 113 130 7,500  Level Jacksonville Center
09:40PM 29.4783 -82.0075 116° Southeast 110 127 7,500  Level Jacksonville Center
09:41PM 29.4658 -81.9767 115° Southeast 110 127 7,500  Level Jacksonville Center
09:42PM 29.4531 -81.9433 114° Southeast 110 127 7,500 -60 Level Jacksonville Center
09:43PM 29.4403 -81.9147 117° Southeast 111 128 7,400  Descending Jacksonville Center
09:45PM 29.4275 -81.8792 112° Southeast 111 128 7,500  Climbing Jacksonville Center
09:46PM 29.4147 -81.8483 115° Southeast 109 125 7,400  Descending Jacksonville Center
09:46PM 29.4039 -81.8175 112° Southeast 110 127 7,500  Climbing Jacksonville Center
09:47PM 29.3911 -81.7889 117° Southeast 109 125 7,500 -60 Level Jacksonville Center
09:48PM 29.3764 -81.7558 117° Southeast 110 127 7,400  Descending Jacksonville Center
09:49PM 29.3633 -81.7225 114° Southeast 111 128 7,500  Climbing Jacksonville Center
09:50PM 29.3506 -81.6894 114° Southeast 111 128 7,500  Level Jacksonville Center
09:51PM 29.3419 -81.6656 112° Southeast 110 127 7,600 60 Climbing Jacksonville Center
09:52PM 29.3378 -81.6561 117° Southeast 110 127 7,600 -120 Level Jacksonville Center
09:53PM 29.3250 -81.6231 114° Southeast 110 127 7,500  Descending Jacksonville Center
09:54PM 29.3122 -81.5922 115° Southeast 109 125 7,600  Climbing Jacksonville Center
09:55PM 29.2972 -81.5567 116° Southeast 113 130 7,600  Level Jacksonville Center
09:56PM 29.2842 -81.5283 118° Southeast 117 135 7,600  Level Jacksonville Center
09:57PM 29.2692 -81.4881 113° Southeast 117 135 7,600 -60 Level Jacksonville Center
09:58PM 29.2564 -81.4572 115° Southeast 114 131 7,500 -60 Descending Jacksonville Center
09:59PM 29.2433 -81.4219 113° Southeast 114 131 7,500  Level Jacksonville Center
10:00PM 29.2306 -81.3911 115° Southeast 115 132 7,500  Level Jacksonville Center
10:01PM 29.2156 -81.3556 116° Southeast 114 131 7,500  Level Jacksonville Center
10:02PM 29.2069 -81.3247 108° East 108 124 7,600  Climbing Jacksonville Center
10:03PM 29.1939 -81.2917 114° Southeast 109 125 7,600 -60 Level Jacksonville Center
10:04PM 29.1811 -81.2633 117° Southeast 109 125 7,500 -60 Descending Jacksonville Center
10:05PM 29.1681 -81.2256 112° Southeast 112 129 7,500 -240 Level Jacksonville Center
10:06PM 29.1531 -81.1950 119° Southeast 114 131 7,100 -480 Descending Jacksonville Center
10:07PM 29.1422 -81.1619 111° Southeast 114 131 6,600 -660 Descending Jacksonville Center
10:08PM 29.1292 -81.1289 114° Southeast 112 129 5,900 -900 Descending Jacksonville Center
10:09PM 29.1142 -81.0981 119° Southeast 120 138 4,800 -1,140 Descending Jacksonville Center